createdAt,value
2022-09-21T00:00:38.288Z,8.21
2022-09-21T00:03:05.625Z,8.17
2022-09-21T00:05:34.030Z,8.14
2022-09-21T00:08:02.730Z,8.14
2022-09-21T00:10:31.397Z,8.14
2022-09-21T00:12:59.652Z,8.16
2022-09-21T00:15:27.224Z,8.15
2022-09-21T00:17:55.591Z,8.15
2022-09-21T00:20:24.641Z,8.16
2022-09-21T00:22:52.039Z,8.17
2022-09-21T00:25:20.310Z,8.15
2022-09-21T00:27:51.371Z,8.09
2022-09-21T00:30:18.944Z,8.05
2022-09-21T00:32:46.141Z,8.05
2022-09-21T00:35:13.699Z,8.03
2022-09-21T00:37:40.969Z,8.02
2022-09-21T00:40:08.921Z,8.00
2022-09-21T00:42:36.148Z,7.97
2022-09-21T00:45:06.346Z,7.96
2022-09-21T00:47:37.245Z,7.97
2022-09-21T00:50:09.084Z,8.03
2022-09-21T00:52:41.405Z,8.04
2022-09-21T00:55:16.167Z,8.01
2022-09-21T00:57:46.041Z,7.96
2022-09-21T01:00:14.909Z,7.95
2022-09-21T01:02:42.799Z,7.96
2022-09-21T01:05:10.951Z,7.95
2022-09-21T01:07:40.840Z,7.90
2022-09-21T01:10:12.566Z,7.89
2022-09-21T01:12:55.998Z,7.88
2022-09-21T01:15:38.632Z,7.89
2022-09-21T01:18:12.793Z,7.84
2022-09-21T01:21:06.643Z,7.84
2022-09-21T01:23:50.395Z,7.89
2022-09-21T01:26:31.743Z,7.91
2022-09-21T01:29:17.000Z,7.94
2022-09-21T01:31:51.615Z,7.91
2022-09-21T01:34:27.077Z,7.89
2022-09-21T01:36:58.259Z,7.88
2022-09-21T01:39:27.562Z,7.89
2022-09-21T01:41:56.410Z,7.86
2022-09-21T01:44:28.729Z,7.91
2022-09-21T01:46:57.806Z,7.85
2022-09-21T01:49:30.342Z,7.76
2022-09-21T01:51:58.841Z,7.70
2022-09-21T01:54:32.602Z,7.68
2022-09-21T01:57:07.423Z,7.71
2022-09-21T01:59:43.303Z,7.76
2022-09-21T02:02:15.580Z,7.77
2022-09-21T02:04:43.307Z,7.78
2022-09-21T02:07:10.811Z,7.81
2022-09-21T02:09:38.524Z,7.82
2022-09-21T02:12:06.116Z,7.82
2022-09-21T02:14:35.601Z,7.83
2022-09-21T02:17:15.411Z,7.85
2022-09-21T02:19:49.649Z,7.91
2022-09-21T02:22:30.492Z,7.94
2022-09-21T02:25:07.635Z,7.99
2022-09-21T02:27:40.036Z,8.01
2022-09-21T02:30:09.273Z,8.05
2022-09-21T02:32:50.511Z,7.98
2022-09-21T02:35:30.582Z,7.95
2022-09-21T02:38:07.842Z,7.96
2022-09-21T02:40:40.323Z,7.93
2022-09-21T02:43:10.079Z,8.03
2022-09-21T02:45:42.441Z,8.02
2022-09-21T02:48:14.595Z,8.06
2022-09-21T02:50:46.550Z,8.08
2022-09-21T02:53:17.328Z,8.10
2022-09-21T02:55:46.991Z,8.12
2022-09-21T02:58:16.668Z,8.12
2022-09-21T03:00:43.958Z,8.13
2022-09-21T03:03:20.671Z,8.15
2022-09-21T03:05:50.055Z,8.15
2022-09-21T03:08:17.745Z,8.19
2022-09-21T03:10:46.283Z,8.21
2022-09-21T03:13:13.660Z,8.25
2022-09-21T03:15:41.988Z,8.32
2022-09-21T03:18:13.009Z,8.36
2022-09-21T03:20:47.817Z,8.32
2022-09-21T03:23:15.340Z,8.38
2022-09-21T03:25:45.048Z,8.40
2022-09-21T03:28:13.606Z,8.42
2022-09-21T03:30:41.455Z,8.43
2022-09-21T03:33:08.908Z,8.50
2022-09-21T03:35:36.199Z,8.55
2022-09-21T03:38:04.795Z,8.56
2022-09-21T03:40:32.821Z,8.59
2022-09-21T03:43:00.271Z,8.59
2022-09-21T03:45:27.680Z,8.60
2022-09-21T03:47:56.479Z,8.62
2022-09-21T03:50:24.427Z,8.64
2022-09-21T03:52:51.741Z,8.66
2022-09-21T03:55:20.740Z,8.68
2022-09-21T03:57:48.155Z,8.68
2022-09-21T04:00:15.666Z,8.75
2022-09-21T04:02:43.191Z,8.81
2022-09-21T04:05:14.721Z,8.87
2022-09-21T04:07:42.909Z,8.91
2022-09-21T04:10:13.144Z,8.89
2022-09-21T04:12:43.533Z,8.95
2022-09-21T04:15:12.183Z,8.94
2022-09-21T04:17:39.529Z,8.95
2022-09-21T04:20:08.940Z,8.96
2022-09-21T04:22:43.319Z,8.94
2022-09-21T04:25:12.917Z,9.01
2022-09-21T04:27:41.923Z,9.04
2022-09-21T04:30:11.503Z,9.10
2022-09-21T04:32:38.936Z,9.13
2022-09-21T04:35:06.738Z,9.20
2022-09-21T04:37:45.453Z,9.24
2022-09-21T04:40:12.703Z,9.33
2022-09-21T04:42:41.412Z,9.41
2022-09-21T04:45:09.933Z,9.51
2022-09-21T04:47:37.133Z,9.65
2022-09-21T04:50:05.319Z,9.74
2022-09-21T04:52:32.562Z,9.82
2022-09-21T04:54:59.711Z,9.90
2022-09-21T04:57:26.972Z,9.98
2022-09-21T04:59:55.650Z,10.07
2022-09-21T05:02:22.835Z,10.17
2022-09-21T05:04:51.082Z,10.25
2022-09-21T05:07:18.576Z,10.34
2022-09-21T05:10:03.938Z,10.44
2022-09-21T05:12:32.087Z,10.55
2022-09-21T05:15:01.009Z,10.66
2022-09-21T05:17:30.665Z,10.74
2022-09-21T05:19:57.885Z,10.78
2022-09-21T05:22:25.071Z,10.83
2022-09-21T05:24:52.522Z,10.83
2022-09-21T05:27:19.681Z,10.82
2022-09-21T05:29:47.647Z,10.88
2022-09-21T05:32:21.082Z,10.88
2022-09-21T05:35:07.251Z,11.04
2022-09-21T05:37:44.875Z,11.09
2022-09-21T05:40:13.379Z,11.17
2022-09-21T05:42:41.273Z,11.23
2022-09-21T05:45:13.851Z,11.15
2022-09-21T05:47:53.325Z,11.24
2022-09-21T05:50:34.691Z,11.35
2022-09-21T05:53:16.568Z,11.43
2022-09-21T05:55:54.931Z,11.51
2022-09-21T05:58:33.192Z,11.61
2022-09-21T06:01:15.706Z,11.71
2022-09-21T06:03:44.974Z,11.78
2022-09-21T06:06:12.361Z,11.85
2022-09-21T06:08:39.775Z,11.91
2022-09-21T06:11:07.084Z,11.96
2022-09-21T06:13:34.319Z,12.13
2022-09-21T06:16:02.822Z,12.34
2022-09-21T06:18:30.459Z,12.59
2022-09-21T06:20:59.224Z,12.77
2022-09-21T06:23:26.489Z,12.95
2022-09-21T06:25:58.309Z,13.13
2022-09-21T06:28:25.997Z,13.28
2022-09-21T06:30:55.336Z,13.35
2022-09-21T06:33:23.638Z,13.51
2022-09-21T06:35:54.791Z,13.60
2022-09-21T06:38:24.650Z,13.71
2022-09-21T06:40:52.816Z,13.78
2022-09-21T06:43:20.520Z,13.77
2022-09-21T06:45:54.314Z,13.73
2022-09-21T06:48:21.946Z,13.66
2022-09-21T06:50:49.588Z,13.45
2022-09-21T06:53:18.146Z,13.20
2022-09-21T06:55:46.929Z,13.01
2022-09-21T06:58:14.207Z,12.91
2022-09-21T07:00:41.484Z,12.95
2022-09-21T07:03:11.496Z,12.94
2022-09-21T07:05:38.763Z,12.87
2022-09-21T07:08:06.435Z,12.88
2022-09-21T07:10:33.738Z,12.88
2022-09-21T07:13:05.265Z,12.94
2022-09-21T07:15:33.741Z,13.01
2022-09-21T07:18:07.951Z,12.96
2022-09-21T07:20:35.179Z,12.92
2022-09-21T07:23:11.119Z,12.93
2022-09-21T07:25:38.603Z,12.92
2022-09-21T07:28:08.020Z,12.93
2022-09-21T07:30:36.290Z,12.84
2022-09-21T07:33:04.200Z,12.82
2022-09-21T07:35:31.767Z,12.86
2022-09-21T07:37:59.675Z,12.92
2022-09-21T07:40:27.478Z,12.96
2022-09-21T07:42:58.106Z,13.01
2022-09-21T07:45:27.258Z,13.09
2022-09-21T07:47:54.721Z,13.02
2022-09-21T07:50:21.981Z,12.92
2022-09-21T07:52:49.599Z,12.88
2022-09-21T07:55:16.939Z,12.86
2022-09-21T07:58:02.825Z,12.83
2022-09-21T08:00:34.653Z,12.74
2022-09-21T08:03:01.847Z,12.73
2022-09-21T08:05:29.008Z,12.72
2022-09-21T08:07:57.231Z,12.61
2022-09-21T08:10:28.268Z,12.65
2022-09-21T08:12:56.894Z,12.65
2022-09-21T08:15:46.743Z,12.63
2022-09-21T08:18:13.070Z,12.67
2022-09-21T08:20:40.214Z,12.65
2022-09-21T08:23:07.521Z,12.61
2022-09-21T08:25:34.709Z,12.68
2022-09-21T08:28:06.109Z,12.72
2022-09-21T08:30:36.064Z,12.79
2022-09-21T08:33:03.809Z,12.85
2022-09-21T08:35:32.641Z,12.95
2022-09-21T08:37:59.854Z,13.08
2022-09-21T08:40:27.342Z,13.21
2022-09-21T08:43:01.144Z,13.34
2022-09-21T08:45:35.847Z,13.48
2022-09-21T08:48:05.944Z,13.64
2022-09-21T08:50:41.990Z,13.74
2022-09-21T08:53:15.204Z,13.89
2022-09-21T08:55:42.929Z,13.99
2022-09-21T08:58:23.710Z,14.14
2022-09-21T09:01:03.535Z,14.10
2022-09-21T09:03:51.842Z,14.19
2022-09-21T09:06:29.926Z,14.12
2022-09-21T09:09:30.207Z,14.08
2022-09-21T09:12:12.852Z,14.09
2022-09-21T09:14:57.576Z,14.05
2022-09-21T09:17:36.186Z,14.25
2022-09-21T09:20:10.770Z,14.25
2022-09-21T09:22:43.540Z,14.48
2022-09-21T09:25:19.402Z,14.59
2022-09-21T09:27:48.480Z,14.62
2022-09-21T09:30:19.272Z,14.88
2022-09-21T09:32:55.075Z,15.07
2022-09-21T09:35:27.715Z,15.27
2022-09-21T09:38:01.247Z,15.33
2022-09-21T09:40:56.952Z,15.39
2022-09-21T09:43:38.217Z,15.22
2022-09-21T09:46:14.257Z,15.26
2022-09-21T09:48:56.435Z,15.22
2022-09-21T09:51:23.990Z,15.28
2022-09-21T09:53:59.005Z,15.53
2022-09-21T09:56:26.991Z,15.73
2022-09-21T09:58:57.919Z,15.83
2022-09-21T10:01:41.233Z,15.82
2022-09-21T10:04:14.014Z,15.82
2022-09-21T10:06:46.061Z,15.77
2022-09-21T10:09:31.367Z,15.66
2022-09-21T10:12:01.683Z,15.47
2022-09-21T10:14:34.395Z,15.29
2022-09-21T10:17:06.120Z,15.32
2022-09-21T10:19:33.991Z,15.14
2022-09-21T10:22:04.168Z,15.09
2022-09-21T10:24:36.024Z,15.08
2022-09-21T10:27:06.659Z,15.09
2022-09-21T10:29:41.726Z,15.14
2022-09-21T10:32:23.685Z,15.11
2022-09-21T10:35:12.821Z,15.03
2022-09-21T10:37:41.658Z,14.95
2022-09-21T10:40:24.863Z,14.84
2022-09-21T10:42:56.189Z,14.79
2022-09-21T10:45:25.987Z,14.84
2022-09-21T10:47:56.217Z,14.86
2022-09-21T10:50:27.157Z,14.78
2022-09-21T10:53:01.166Z,14.73
2022-09-21T10:55:32.151Z,14.68
2022-09-21T10:58:00.575Z,14.67
2022-09-21T11:00:37.824Z,14.73
2022-09-21T11:03:33.978Z,14.69
2022-09-21T11:06:05.544Z,14.68
2022-09-21T11:08:38.417Z,14.74
2022-09-21T11:11:21.442Z,14.81
2022-09-21T11:13:56.649Z,14.88
2022-09-21T11:16:30.356Z,14.87
2022-09-21T11:19:05.025Z,14.88
2022-09-21T11:21:40.828Z,14.94
2022-09-21T11:24:28.636Z,15.05
2022-09-21T11:27:04.322Z,15.01
2022-09-21T11:29:36.720Z,15.03
2022-09-21T11:32:22.670Z,15.00
2022-09-21T11:35:05.160Z,14.99
2022-09-21T11:37:49.539Z,15.01
2022-09-21T11:40:31.855Z,15.03
2022-09-21T11:43:14.080Z,15.01
2022-09-21T11:46:00.532Z,14.99
2022-09-21T11:48:44.688Z,14.98
2022-09-21T11:51:28.859Z,15.06
2022-09-21T11:54:21.212Z,15.10
2022-09-21T11:56:53.446Z,15.01
2022-09-21T11:59:42.945Z,15.04
2022-09-21T12:02:31.281Z,15.04
2022-09-21T12:05:03.666Z,14.98
2022-09-21T12:07:46.956Z,14.93
2022-09-21T12:10:36.868Z,14.93
2022-09-21T12:13:12.382Z,14.88
2022-09-21T12:15:49.658Z,14.83
2022-09-21T12:18:25.983Z,14.77
2022-09-21T12:21:01.810Z,14.78
2022-09-21T12:23:37.207Z,14.77
2022-09-21T12:26:06.241Z,14.76
2022-09-21T12:28:40.851Z,14.68
2022-09-21T12:31:18.898Z,14.75
2022-09-21T12:33:50.173Z,14.73
2022-09-21T12:36:21.084Z,14.64
2022-09-21T12:38:56.397Z,14.69
2022-09-21T12:41:31.633Z,14.56
2022-09-21T12:44:06.050Z,14.60
2022-09-21T12:46:38.710Z,14.63
2022-09-21T12:49:14.483Z,14.65
2022-09-21T12:51:45.457Z,14.64
2022-09-21T12:54:25.028Z,14.60
2022-09-21T12:57:03.819Z,14.48
2022-09-21T12:59:48.891Z,14.52
2022-09-21T13:02:24.484Z,14.46
2022-09-21T13:05:02.238Z,14.39
2022-09-21T13:07:52.020Z,14.50
2022-09-21T13:10:31.836Z,14.47
2022-09-21T13:13:03.367Z,14.41
2022-09-21T13:15:33.223Z,14.42
2022-09-21T13:18:06.071Z,14.45
2022-09-21T13:20:39.590Z,14.45
2022-09-21T13:23:14.182Z,14.45
2022-09-21T13:25:41.742Z,14.46
2022-09-21T13:28:21.685Z,14.37
2022-09-21T13:31:30.174Z,14.31
2022-09-21T13:34:21.631Z,14.43
2022-09-21T13:37:25.635Z,14.39
2022-09-21T13:40:39.373Z,14.38
2022-09-21T13:43:24.475Z,14.29
2022-09-21T13:45:57.179Z,14.25
2022-09-21T13:48:29.946Z,14.21
2022-09-21T13:51:01.584Z,14.15
2022-09-21T13:53:35.978Z,14.15
2022-09-21T13:56:09.152Z,14.14
2022-09-21T13:58:42.782Z,14.13
2022-09-21T14:01:42.405Z,14.12
2022-09-21T14:04:17.442Z,14.12
2022-09-21T14:06:50.091Z,14.14
2022-09-21T14:09:26.423Z,14.12
2022-09-21T14:11:58.116Z,14.13
2022-09-21T14:14:30.296Z,14.10
2022-09-21T14:16:59.650Z,14.12
2022-09-21T14:20:00.039Z,14.14
2022-09-21T14:22:38.242Z,14.14
2022-09-21T14:25:26.221Z,14.06
2022-09-21T14:27:59.440Z,13.99
2022-09-21T14:30:30.002Z,14.10
2022-09-21T14:33:12.198Z,14.07
2022-09-21T14:35:43.614Z,14.06
2022-09-21T14:38:21.123Z,14.01
2022-09-21T14:40:50.430Z,13.94
2022-09-21T14:43:23.147Z,13.93
2022-09-21T14:46:03.933Z,13.96
2022-09-21T14:48:40.709Z,13.94
2022-09-21T14:51:21.062Z,13.96
2022-09-21T14:54:20.811Z,13.96
2022-09-21T14:57:04.780Z,13.91
2022-09-21T14:59:48.260Z,13.78
2022-09-21T15:02:21.106Z,13.60
2022-09-21T15:05:01.045Z,13.48
2022-09-21T15:07:56.092Z,13.25
2022-09-21T15:10:46.796Z,12.95
2022-09-21T15:13:37.432Z,12.67
2022-09-21T15:16:25.956Z,12.30
2022-09-21T15:19:05.912Z,11.92
2022-09-21T15:21:33.236Z,11.56
2022-09-21T15:24:17.545Z,11.27
2022-09-21T15:26:45.563Z,10.98
2022-09-21T15:29:24.775Z,10.89
2022-09-21T15:31:53.116Z,10.93
2022-09-21T15:34:21.582Z,10.87
2022-09-21T15:36:52.065Z,10.86
2022-09-21T15:39:25.422Z,10.83
2022-09-21T15:42:18.017Z,10.89
2022-09-21T15:44:48.796Z,11.03
2022-09-21T15:47:20.112Z,10.99
2022-09-21T15:49:48.133Z,11.09
2022-09-21T15:52:24.213Z,11.02
2022-09-21T15:54:56.861Z,11.13
2022-09-21T15:57:36.546Z,11.12
2022-09-21T16:00:18.989Z,11.23
2022-09-21T16:02:57.251Z,11.29
2022-09-21T16:05:25.757Z,11.40
2022-09-21T16:08:05.904Z,11.52
2022-09-21T16:10:40.786Z,11.55
2022-09-21T16:13:33.966Z,11.54
2022-09-21T16:16:05.084Z,11.71
2022-09-21T16:18:40.637Z,11.55
2022-09-21T16:21:10.349Z,11.58
2022-09-21T16:23:39.583Z,11.48
2022-09-21T16:26:06.944Z,11.43
2022-09-21T16:28:39.543Z,11.27
2022-09-21T16:31:30.051Z,11.06
2022-09-21T16:34:00.546Z,10.65
2022-09-21T16:36:42.012Z,10.18
2022-09-21T16:39:15.560Z,9.82
2022-09-21T16:41:56.267Z,9.28
2022-09-21T16:44:25.820Z,9.05
2022-09-21T16:47:00.163Z,9.15
2022-09-21T16:49:30.593Z,9.06
2022-09-21T16:51:59.377Z,9.00
2022-09-21T16:54:27.791Z,9.00
2022-09-21T16:56:57.597Z,8.98
2022-09-21T16:59:25.646Z,9.00
2022-09-21T17:01:56.833Z,9.02
2022-09-21T17:04:27.391Z,8.98
2022-09-21T17:06:55.636Z,9.03
2022-09-21T17:09:31.583Z,8.98
2022-09-21T17:12:02.800Z,9.14
2022-09-21T17:14:35.610Z,9.13
2022-09-21T17:17:08.517Z,8.99
2022-09-21T17:19:37.696Z,9.11
2022-09-21T17:22:07.179Z,9.20
2022-09-21T17:24:49.922Z,9.29
2022-09-21T17:27:20.091Z,9.31
2022-09-21T17:29:49.388Z,9.47
2022-09-21T17:32:20.530Z,9.58
2022-09-21T17:34:55.756Z,9.64
2022-09-21T17:37:24.210Z,9.74
2022-09-21T17:39:51.706Z,9.74
2022-09-21T17:42:21.361Z,9.78
2022-09-21T17:44:59.743Z,9.79
2022-09-21T17:47:29.423Z,9.78
2022-09-21T17:50:05.928Z,9.81
2022-09-21T17:52:52.211Z,9.85
2022-09-21T17:55:20.308Z,9.92
2022-09-21T17:57:59.751Z,9.96
2022-09-21T18:00:34.800Z,9.97
2022-09-21T18:03:02.949Z,10.01
2022-09-21T18:05:32.715Z,10.03
2022-09-21T18:08:00.319Z,10.00
2022-09-21T18:10:30.475Z,9.98
2022-09-21T18:13:19.641Z,9.91
2022-09-21T18:15:59.316Z,9.93
2022-09-21T18:18:40.329Z,9.88
2022-09-21T18:21:17.120Z,9.80
2022-09-21T18:23:57.234Z,9.72
2022-09-21T18:26:26.387Z,9.67
2022-09-21T18:28:58.336Z,9.75
2022-09-21T18:31:42.152Z,9.72
2022-09-21T18:34:29.292Z,9.82
2022-09-21T18:37:12.639Z,9.85
2022-09-21T18:39:53.492Z,9.87
2022-09-21T18:42:38.136Z,9.90
2022-09-21T18:45:12.604Z,9.85
2022-09-21T18:47:47.786Z,9.85
2022-09-21T18:50:22.780Z,9.72
2022-09-21T18:53:02.003Z,9.82
2022-09-21T18:55:33.218Z,9.82
2022-09-21T18:58:01.683Z,9.85
2022-09-21T19:00:34.303Z,9.83
2022-09-21T19:03:17.105Z,9.77
2022-09-21T19:06:13.309Z,9.74
2022-09-21T19:08:53.787Z,9.74
2022-09-21T19:11:32.457Z,9.75
2022-09-21T19:14:12.256Z,9.75
2022-09-21T19:16:51.748Z,9.75
2022-09-21T19:19:35.345Z,9.56
2022-09-21T19:22:14.488Z,9.68
2022-09-21T19:24:53.251Z,9.79
2022-09-21T19:27:33.078Z,9.81
2022-09-21T19:30:06.518Z,9.85
2022-09-21T19:32:38.808Z,9.88
2022-09-21T19:35:15.356Z,9.92
2022-09-21T19:37:42.974Z,9.90
2022-09-21T19:40:12.567Z,9.91
2022-09-21T19:43:02.735Z,9.92
2022-09-21T19:45:39.565Z,9.91
2022-09-21T19:48:11.540Z,9.91
2022-09-21T19:50:46.845Z,9.91
2022-09-21T19:53:33.851Z,9.95
2022-09-21T19:56:24.223Z,9.93
2022-09-21T19:59:10.936Z,9.91
2022-09-21T20:01:44.294Z,9.92
2022-09-21T20:04:13.515Z,9.81
2022-09-21T20:06:45.809Z,9.67
2022-09-21T20:09:15.043Z,9.85
2022-09-21T20:11:48.279Z,9.85
2022-09-21T20:14:25.733Z,9.86
2022-09-21T20:16:56.309Z,9.85
2022-09-21T20:19:34.214Z,9.93
2022-09-21T20:22:04.963Z,9.94
2022-09-21T20:24:39.957Z,9.97
2022-09-21T20:27:22.351Z,9.98
2022-09-21T20:29:49.563Z,10.06
2022-09-21T20:32:18.102Z,10.09
2022-09-21T20:34:45.649Z,10.08
2022-09-21T20:37:17.241Z,10.09
2022-09-21T20:39:44.453Z,10.06
2022-09-21T20:42:19.114Z,9.90
2022-09-21T20:44:46.362Z,9.96
2022-09-21T20:47:13.852Z,9.88
2022-09-21T20:49:41.214Z,9.88
2022-09-21T20:52:10.442Z,9.86
2022-09-21T20:54:37.700Z,9.86
2022-09-21T20:57:05.079Z,9.82
2022-09-21T20:59:33.766Z,9.84
2022-09-21T21:02:01.110Z,9.79
2022-09-21T21:04:29.087Z,9.78
2022-09-21T21:06:57.066Z,9.89
2022-09-21T21:09:25.420Z,9.89
2022-09-21T21:11:52.757Z,9.91
2022-09-21T21:14:20.036Z,9.90
2022-09-21T21:16:49.369Z,9.89
2022-09-21T21:19:17.673Z,9.88
2022-09-21T21:21:45.596Z,9.84
2022-09-21T21:24:31.078Z,9.89
2022-09-21T21:27:02.303Z,9.86
2022-09-21T21:29:30.227Z,9.87
2022-09-21T21:31:59.814Z,9.85
2022-09-21T21:34:27.428Z,9.85
2022-09-21T21:36:56.121Z,9.86
2022-09-21T21:39:23.539Z,9.86
2022-09-21T21:41:50.972Z,9.84
2022-09-21T21:44:19.448Z,9.86
2022-09-21T21:46:47.115Z,9.87
2022-09-21T21:49:15.884Z,9.86
2022-09-21T21:51:44.769Z,9.83
2022-09-21T21:54:12.232Z,9.78
2022-09-21T21:56:39.420Z,9.78
2022-09-21T21:59:06.856Z,9.74
2022-09-21T22:01:34.184Z,9.76
2022-09-21T22:04:02.735Z,9.69
2022-09-21T22:06:33.268Z,9.78
2022-09-21T22:09:01.618Z,9.85
2022-09-21T22:11:31.117Z,9.80
2022-09-21T22:13:59.714Z,9.88
2022-09-21T22:16:29.031Z,9.87
2022-09-21T22:18:57.081Z,9.87
2022-09-21T22:21:26.417Z,9.88
2022-09-21T22:23:56.319Z,9.88
2022-09-21T22:26:24.396Z,9.83
2022-09-21T22:28:53.762Z,9.79
2022-09-21T22:31:22.768Z,9.89
2022-09-21T22:33:50.090Z,9.88
2022-09-21T22:36:19.064Z,9.87
2022-09-21T22:38:47.333Z,9.87
2022-09-21T22:41:17.411Z,9.88
2022-09-21T22:43:45.253Z,9.87
2022-09-21T22:46:13.002Z,9.90
2022-09-21T22:48:40.501Z,9.90
2022-09-21T22:51:08.408Z,9.92
2022-09-21T22:53:35.759Z,9.93
2022-09-21T22:56:05.740Z,9.84
2022-09-21T22:58:36.092Z,9.96
2022-09-21T23:01:05.688Z,9.96
2022-09-21T23:03:33.891Z,9.95
2022-09-21T23:06:01.956Z,9.96
2022-09-21T23:08:29.494Z,9.95
2022-09-21T23:10:57.122Z,9.93
2022-09-21T23:13:24.524Z,9.97
2022-09-21T23:15:53.468Z,9.93
2022-09-21T23:18:21.316Z,9.95
2022-09-21T23:20:56.975Z,9.93
2022-09-21T23:23:25.095Z,9.97
2022-09-21T23:26:01.857Z,9.91
2022-09-21T23:28:29.446Z,9.94
2022-09-21T23:31:00.416Z,9.94
2022-09-21T23:33:32.372Z,9.97
2022-09-21T23:35:59.798Z,9.96
2022-09-21T23:38:27.113Z,9.96
2022-09-21T23:40:54.779Z,9.99
2022-09-21T23:43:22.357Z,10.01
2022-09-21T23:45:49.793Z,10.01
2022-09-21T23:48:18.429Z,10.01
2022-09-21T23:50:45.723Z,9.98
2022-09-21T23:53:12.982Z,10.01
2022-09-21T23:55:40.363Z,10.01
2022-09-21T23:58:07.613Z,10.00
